Time;durP1;ratioP1;P1;durP2;ratioP2;P2;SDS_P1;SDS_P2;PMS_P1;PMS_P2;Temp;Humidity;BMP_temperature;BMP_pressure;BME280_temperature;BME280_humidity;BME280_pressure;Samples;Min_cycle;Max_cycle;Signal;HPM_P1;HPM_P2
2021/07/18 00:00:24;;;;;;;;;;;;;;;;;;1449866;41;7004;-72
2021/07/18 00:01:26;;;;;;;;;;;;;;;;;;1449932;41;7937;-71
2021/07/18 00:02:29;;;;;;;;;;;;;;;;;;1449894;41;7008;-71
2021/07/18 00:03:32;;;;;;;;;;;;;;;;;;1450182;41;7004;-72
2021/07/18 00:04:34;;;;;;;;;;;;;;;;;;1450379;41;7000;-71
2021/07/18 00:05:37;;;;;;;;;;;;;;;;;;1449997;41;7000;-71
2021/07/18 00:06:40;;;;;;;;;;;;;;;;;;1449163;41;7008;-71
2021/07/18 00:07:42;;;;;;;;;;;;;;;;;;1449825;41;7036;-73
2021/07/18 00:08:44;;;;;;;;;;;;;;;;;;1449763;41;7008;-71
2021/07/18 00:09:47;;;;;;;;;;;;;;;;;;1449989;41;7004;-71
2021/07/18 00:10:49;;;;;;;;;;;;;;;;;;1450091;41;7112;-70
2021/07/18 00:11:52;;;;;;;;;;;;;;;;;;1450203;41;7032;-73
2021/07/18 00:12:54;;;;;;;;;;;;;;;;;;1449635;41;7024;-73
2021/07/18 00:13:57;;;;;;;;;;;;;;;;;;1449011;41;7308;-71
2021/07/18 00:14:59;;;;;;;;;;;;;;;;;;1449705;41;7013;-72
2021/07/18 00:16:02;;;;;;;;;;;;;;;;;;1449266;41;7036;-73
2021/07/18 00:17:04;;;;;;;;;;;;;;;;;;1449581;41;7912;-70
2021/07/18 00:18:08;;;;;;;;;;;;;;;;;;1449559;41;7251;-73
2021/07/18 00:19:10;;;;;;;;;;;;;;;;;;1449871;41;7028;-72
2021/07/18 00:20:13;;;;;;;;;;;;;;;;;;1449693;41;7106;-72
2021/07/18 00:21:16;;;;;;;;;;;;;;;;;;1450195;41;7339;-70
2021/07/18 00:22:18;;;;;;;;;;;;;;;;;;1449456;41;7097;-71
2021/07/18 00:23:21;;;;;;;;;;;;;;;;;;1449367;41;7008;-72
2021/07/18 00:24:23;;;;;;;;;;;;;;;;;;1449684;41;7039;-71
2021/07/18 00:25:26;;;;;;;;;;;;;;;;;;1449777;41;7000;-70
2021/07/18 00:26:28;;;;;;;;;;;;;;;;;;1450199;41;8003;-72
2021/07/18 00:27:31;;;;;;;;;;;;;;;;;;1448764;41;7212;-70
2021/07/18 00:28:33;;;;;;;;;;;;;;;;;;1449461;41;7016;-72
2021/07/18 00:29:35;;;;;;;;;;;;;;;;;;1449454;41;7052;-71
2021/07/18 00:30:38;;;;;;;;;;;;;;;;;;1449846;41;7886;-71
2021/07/18 00:31:40;;;;;;;;;;;;;;;;;;1449287;41;7024;-72
2021/07/18 00:32:43;;;;;;;;;;;;;;;;;;1449902;41;7016;-72
2021/07/18 00:33:45;;;;;;;;;;;;;;;;;;1448864;41;7967;-70
2021/07/18 00:34:48;;;;;;;;;;;;;;;;;;1449636;41;7017;-72
2021/07/18 00:35:50;;;;;;;;;;;;;;;;;;1449326;41;7048;-70
2021/07/18 00:36:52;;;;;;;;;;;;;;;;;;1449979;40;7004;-71
2021/07/18 00:37:55;;;;;;;;;;;;;;;;;;1450445;41;8109;-71
2021/07/18 00:38:57;;;;;;;;;;;;;;;;;;1450723;41;7008;-71
2021/07/18 00:40:00;;;;;;;;;;;;;;;;;;1449583;41;7036;-70
2021/07/18 00:41:02;;;;;;;;;;;;;;;;;;1450868;41;7115;-72
2021/07/18 00:42:05;;;;;;;;;;;;;;;;;;1450398;41;7219;-71
2021/07/18 00:43:07;;;;;;;;;;;;;;;;;;1450292;41;7982;-71
2021/07/18 00:44:10;;;;;;;;;;;;;;;;;;1450112;41;7040;-71
2021/07/18 00:45:12;;;;;;;;;;;;;;;;;;1450571;41;8017;-70
2021/07/18 00:46:15;;;;;;;;;;;;;;;;;;1450228;41;7001;-71
2021/07/18 00:47:18;;;;;;;;;;;;;;;;;;1450837;41;7001;-72
2021/07/18 00:48:21;;;;;;;;;;;;;;;;;;1450496;41;7008;-70
2021/07/18 00:49:24;;;;;;;;;;;;;;;;;;1450654;41;7032;-70
2021/07/18 00:50:27;;;;;;;;;;;;;;;;;;1449814;41;7001;-70
2021/07/18 00:51:30;;;;;;;;;;;;;;;;;;1450682;41;7179;-72
2021/07/18 00:52:33;;;;;;;;;;;;;;;;;;1450486;41;7977;-70
2021/07/18 00:53:35;;;;;;;;;;;;;;;;;;1450346;41;7121;-71
2021/07/18 00:54:38;;;;;;;;;;;;;;;;;;1450345;41;7000;-72
2021/07/18 00:55:44;;;;;;;;;;;;;;;;;;1450908;41;7940;-72
2021/07/18 00:56:46;;;;;;;;;;;;;;;;;;1450449;41;7074;-72
2021/07/18 00:57:50;;;;;;;;;;;;;;;;;;1450688;41;7004;-71
2021/07/18 00:58:54;;;;;;;;;;;;;;;;;;1450265;41;7011;-72
2021/07/18 01:00:01;;;;;;;;;;;;;;;;;;1450975;41;7032;-72
2021/07/18 01:01:06;;;;;;;;;;;;;;;;;;1450665;41;7174;-72
2021/07/18 01:02:09;;;;;;;;;;;;;;;;;;1450292;41;7000;-73
2021/07/18 01:03:12;;;;;;;;;;;;;;;;;;1450396;41;7004;-71
2021/07/18 01:04:14;;;;;;;;;;;;;;;;;;1450263;41;7028;-72
2021/07/18 01:05:17;;;;;;;;;;;;;;;;;;1445954;41;7117;-71
2021/07/18 01:06:19;;;;;;;;;;;;;;;;;;1446561;41;7036;-70
2021/07/18 01:07:22;;;;;;;;;;;;;;;;;;1450121;41;7044;-71
2021/07/18 01:08:26;;;;;;;;;;;;;;;;;;1450363;41;7040;-70
2021/07/18 01:09:29;;;;;;;;;;;;;;;;;;1450225;41;7005;-71
2021/07/18 01:10:31;;;;;;;;;;;;;;;;;;1450324;41;7000;-72
2021/07/18 01:11:34;;;;;;;;;;;;;;;;;;1450533;41;7000;-71
2021/07/18 01:12:36;;;;;;;;;;;;;;;;;;1450585;41;7039;-72
2021/07/18 01:13:39;;;;;;;;;;;;;;;;;;1449862;41;7039;-72
2021/07/18 01:14:41;;;;;;;;;;;;;;;;;;1450038;41;7004;-70
2021/07/18 01:15:45;;;;;;;;;;;;;;;;;;1450415;41;7036;-71
2021/07/18 01:16:47;;;;;;;;;;;;;;;;;;1450439;41;7001;-71
2021/07/18 01:17:50;;;;;;;;;;;;;;;;;;1450393;41;7000;-71
2021/07/18 01:18:52;;;;;;;;;;;;;;;;;;1450269;41;7012;-72
2021/07/18 01:19:55;;;;;;;;;;;;;;;;;;1450650;41;8037;-71
2021/07/18 01:20:59;;;;;;;;;;;;;;;;;;1446101;41;7024;-71
2021/07/18 01:22:02;;;;;;;;;;;;;;;;;;1446040;41;7937;-72
2021/07/18 01:23:06;;;;;;;;;;;;;;;;;;1449605;41;7887;-70
2021/07/18 01:24:13;;;;;;;;;;;;;;;;;;1449790;41;7020;-71
2021/07/18 01:25:16;;;;;;;;;;;;;;;;;;1450175;41;7048;-70
2021/07/18 01:26:18;;;;;;;;;;;;;;;;;;1449693;41;7024;-72
2021/07/18 01:27:21;;;;;;;;;;;;;;;;;;1449869;41;7177;-71
2021/07/18 01:28:23;;;;;;;;;;;;;;;;;;1450075;41;7036;-71
2021/07/18 01:29:29;;;;;;;;;;;;;;;;;;1450082;41;7000;-70
2021/07/18 01:30:32;;;;;;;;;;;;;;;;;;1449880;41;7541;-72
2021/07/18 01:31:34;;;;;;;;;;;;;;;;;;1449691;41;7028;-73
2021/07/18 01:32:37;;;;;;;;;;;;;;;;;;1449987;41;7008;-71
2021/07/18 01:33:40;;;;;;;;;;;;;;;;;;1450282;41;7080;-71
2021/07/18 01:34:42;;;;;;;;;;;;;;;;;;1449714;41;7000;-72
2021/07/18 01:35:45;;;;;;;;;;;;;;;;;;1450357;41;7020;-71
2021/07/18 01:36:47;;;;;;;;;;;;;;;;;;1450193;41;7945;-71
2021/07/18 01:37:50;;;;;;;;;;;;;;;;;;1450113;41;7040;-71
2021/07/18 01:38:52;;;;;;;;;;;;;;;;;;1450431;41;6996;-72
2021/07/18 01:39:54;;;;;;;;;;;;;;;;;;1449619;41;7040;-71
2021/07/18 01:40:57;;;;;;;;;;;;;;;;;;1450721;41;7009;-71
2021/07/18 01:41:59;;;;;;;;;;;;;;;;;;1450635;41;7111;-71
2021/07/18 01:43:04;;;;;;;;;;;;;;;;;;1450394;41;7016;-71
2021/07/18 01:44:07;;;;;;;;;;;;;;;;;;1450115;41;7000;-70
2021/07/18 01:45:10;;;;;;;;;;;;;;;;;;1449697;41;7017;-72
2021/07/18 01:46:13;;;;;;;;;;;;;;;;;;1449661;41;7013;-70
2021/07/18 01:47:15;;;;;;;;;;;;;;;;;;1450040;41;7178;-70
2021/07/18 01:48:18;;;;;;;;;;;;;;;;;;1450377;40;7499;-69
2021/07/18 01:49:21;;;;;;;;;;;;;;;;;;1450531;41;7009;-70
2021/07/18 01:50:23;;;;;;;;;;;;;;;;;;1450015;41;7040;-70
2021/07/18 01:51:27;;;;;;;;;;;;;;;;;;1450374;41;7000;-72
2021/07/18 01:52:30;;;;;;;;;;;;;;;;;;1450362;41;7244;-69
2021/07/18 01:53:32;;;;;;;;;;;;;;;;;;1446017;41;6996;-72
2021/07/18 01:54:34;;;;;;;;;;;;;;;;;;1445807;41;7297;-72
2021/07/18 01:55:37;;;;;;;;;;;;;;;;;;1450375;41;7973;-72
2021/07/18 01:56:40;;;;;;;;;;;;;;;;;;1450206;41;7009;-70
2021/07/18 01:57:43;;;;;;;;;;;;;;;;;;1450438;41;7040;-70
2021/07/18 01:58:47;;;;;;;;;;;;;;;;;;1450397;41;7008;-71
2021/07/18 01:59:50;;;;;;;;;;;;;;;;;;1450424;41;7000;-71
2021/07/18 02:00:52;;;;;;;;;;;;;;;;;;1450146;41;7000;-70
2021/07/18 02:01:54;;;;;;;;;;;;;;;;;;1450245;41;7000;-71
2021/07/18 02:02:58;;;;;;;;;;;;;;;;;;1450296;41;7048;-71
2021/07/18 02:04:02;;;;;;;;;;;;;;;;;;1450056;41;7041;-72
2021/07/18 02:05:05;;;;;;;;;;;;;;;;;;1450160;41;7036;-70
2021/07/18 02:06:08;;;;;;;;;;;;;;;;;;1445606;41;8671;-71
2021/07/18 02:07:11;;;;;;;;;;;;;;;;;;1445818;41;7044;-71
2021/07/18 02:08:13;;;;;;;;;;;;;;;;;;1450243;41;7000;-71
2021/07/18 02:09:16;;;;;;;;;;;;;;;;;;1450224;41;7020;-71
2021/07/18 02:10:20;;;;;;;;;;;;;;;;;;1450588;41;7204;-70
2021/07/18 02:11:24;;;;;;;;;;;;;;;;;;1450293;41;7004;-70
2021/07/18 02:12:26;;;;;;;;;;;;;;;;;;1450316;41;7017;-72
2021/07/18 02:13:29;;;;;;;;;;;;;;;;;;1450146;41;7040;-72
2021/07/18 02:14:37;;;;;;;;;;;;;;;;;;1449943;41;7055;-71
2021/07/18 02:15:39;;;;;;;;;;;;;;;;;;1450108;41;7004;-72
2021/07/18 02:16:41;;;;;;;;;;;;;;;;;;1450558;41;7028;-72
2021/07/18 02:17:44;;;;;;;;;;;;;;;;;;1449337;41;7047;-71
2021/07/18 02:18:47;;;;;;;;;;;;;;;;;;1449966;41;7024;-70
2021/07/18 02:19:50;;;;;;;;;;;;;;;;;;1450190;41;7012;-71
2021/07/18 02:20:56;;;;;;;;;;;;;;;;;;1450302;41;7048;-70
2021/07/18 02:21:59;;;;;;;;;;;;;;;;;;1449798;41;7004;-69
2021/07/18 02:23:02;;;;;;;;;;;;;;;;;;1449877;41;7036;-70
2021/07/18 02:24:05;;;;;;;;;;;;;;;;;;1449645;41;7012;-71
2021/07/18 02:25:07;;;;;;;;;;;;;;;;;;1449784;41;7028;-70
2021/07/18 02:26:10;;;;;;;;;;;;;;;;;;1449796;41;7012;-70
2021/07/18 02:27:12;;;;;;;;;;;;;;;;;;1450129;41;7044;-71
2021/07/18 02:28:15;;;;;;;;;;;;;;;;;;1449648;41;7008;-69
2021/07/18 02:29:17;;;;;;;;;;;;;;;;;;1450447;41;7000;-67
2021/07/18 02:30:21;;;;;;;;;;;;;;;;;;1449848;41;7009;-69
2021/07/18 02:31:24;;;;;;;;;;;;;;;;;;1448984;41;7036;-68
2021/07/18 02:32:26;;;;;;;;;;;;;;;;;;1449850;41;7004;-68
2021/07/18 02:33:29;;;;;;;;;;;;;;;;;;1449823;41;7039;-67
2021/07/18 02:34:31;;;;;;;;;;;;;;;;;;1450003;41;7000;-69
2021/07/18 02:35:34;;;;;;;;;;;;;;;;;;1450180;41;7060;-68
2021/07/18 02:36:36;;;;;;;;;;;;;;;;;;1449724;41;7004;-67
2021/07/18 02:37:40;;;;;;;;;;;;;;;;;;1450186;41;7017;-69
2021/07/18 02:38:42;;;;;;;;;;;;;;;;;;1450057;41;7032;-68
2021/07/18 02:39:45;;;;;;;;;;;;;;;;;;1449827;41;7327;-69
2021/07/18 02:40:47;;;;;;;;;;;;;;;;;;1449351;41;7324;-69
2021/07/18 02:41:49;;;;;;;;;;;;;;;;;;1445621;41;7001;-70
2021/07/18 02:42:53;;;;;;;;;;;;;;;;;;1445967;41;7008;-69
2021/07/18 02:43:56;;;;;;;;;;;;;;;;;;1450038;41;7044;-69
2021/07/18 02:44:58;;;;;;;;;;;;;;;;;;1449430;41;7009;-68
2021/07/18 02:46:01;;;;;;;;;;;;;;;;;;1449680;41;7000;-67
2021/07/18 02:47:03;;;;;;;;;;;;;;;;;;1450168;41;7246;-67
2021/07/18 02:48:06;;;;;;;;;;;;;;;;;;1449907;41;7152;-69
2021/07/18 02:49:08;;;;;;;;;;;;;;;;;;1450005;41;7035;-70
2021/07/18 02:50:12;;;;;;;;;;;;;;;;;;1449687;41;8538;-67
2021/07/18 02:51:14;;;;;;;;;;;;;;;;;;1449571;41;7006;-68
2021/07/18 02:52:17;;;;;;;;;;;;;;;;;;1449861;41;6996;-67
2021/07/18 02:53:19;;;;;;;;;;;;;;;;;;1450663;41;7036;-67
2021/07/18 02:54:22;;;;;;;;;;;;;;;;;;1450598;41;7072;-70
2021/07/18 02:55:24;;;;;;;;;;;;;;;;;;1450147;41;7008;-70
2021/07/18 02:56:27;;;;;;;;;;;;;;;;;;1450303;41;7008;-68
2021/07/18 02:57:29;;;;;;;;;;;;;;;;;;1450314;41;7007;-68
2021/07/18 02:58:32;;;;;;;;;;;;;;;;;;1450913;41;7250;-69
2021/07/18 02:59:34;;;;;;;;;;;;;;;;;;1450243;40;8027;-66
2021/07/18 03:00:36;;;;;;;;;;;;;;;;;;1450016;41;7032;-67
2021/07/18 03:01:39;;;;;;;;;;;;;;;;;;1449931;41;7008;-69
2021/07/18 03:02:42;;;;;;;;;;;;;;;;;;1450000;41;7007;-69
2021/07/18 03:03:45;;;;;;;;;;;;;;;;;;1450315;41;7000;-67
2021/07/18 03:04:47;;;;;;;;;;;;;;;;;;1449679;41;7001;-69
2021/07/18 03:05:50;;;;;;;;;;;;;;;;;;1450070;41;7045;-69
2021/07/18 03:06:53;;;;;;;;;;;;;;;;;;1450995;41;7161;-67
2021/07/18 03:07:55;;;;;;;;;;;;;;;;;;1450695;41;7008;-68
2021/07/18 03:08:57;;;;;;;;;;;;;;;;;;1450451;41;7115;-69
2021/07/18 03:10:00;;;;;;;;;;;;;;;;;;1450212;41;7041;-69
2021/07/18 03:11:02;;;;;;;;;;;;;;;;;;1450535;41;7965;-67
2021/07/18 03:12:05;;;;;;;;;;;;;;;;;;1450540;41;7004;-69
2021/07/18 03:13:08;;;;;;;;;;;;;;;;;;1449970;41;7079;-69
2021/07/18 03:14:10;;;;;;;;;;;;;;;;;;1449913;41;7005;-69
2021/07/18 03:15:14;;;;;;;;;;;;;;;;;;1450328;41;7921;-69
2021/07/18 03:16:16;;;;;;;;;;;;;;;;;;1450829;41;7039;-68
2021/07/18 03:17:19;;;;;;;;;;;;;;;;;;1449732;41;7779;-68
2021/07/18 03:18:23;;;;;;;;;;;;;;;;;;1449939;41;7012;-67
2021/07/18 03:19:28;;;;;;;;;;;;;;;;;;1449124;41;7035;-68
2021/07/18 03:20:31;;;;;;;;;;;;;;;;;;1449803;41;7004;-67
2021/07/18 03:21:34;;;;;;;;;;;;;;;;;;1450062;41;7008;-67
2021/07/18 03:22:36;;;;;;;;;;;;;;;;;;1450265;41;7008;-68
2021/07/18 03:23:39;;;;;;;;;;;;;;;;;;1450384;41;7589;-68
2021/07/18 03:24:41;;;;;;;;;;;;;;;;;;1449639;41;7063;-67
2021/07/18 03:25:44;;;;;;;;;;;;;;;;;;1450298;41;7012;-68
2021/07/18 03:26:46;;;;;;;;;;;;;;;;;;1449481;41;7265;-69
2021/07/18 03:27:48;;;;;;;;;;;;;;;;;;1449169;41;7017;-68
2021/07/18 03:28:51;;;;;;;;;;;;;;;;;;1449954;41;7008;-69
2021/07/18 03:29:53;;;;;;;;;;;;;;;;;;1450107;41;7032;-70
2021/07/18 03:30:57;;;;;;;;;;;;;;;;;;1449638;41;7036;-67
2021/07/18 03:31:59;;;;;;;;;;;;;;;;;;1449560;41;7259;-68
2021/07/18 03:33:03;;;;;;;;;;;;;;;;;;1449588;41;7035;-68
2021/07/18 03:34:05;;;;;;;;;;;;;;;;;;1449949;41;7392;-69
2021/07/18 03:35:08;;;;;;;;;;;;;;;;;;1450301;41;7000;-68
2021/07/18 03:36:11;;;;;;;;;;;;;;;;;;1449978;41;7027;-67
2021/07/18 03:37:13;;;;;;;;;;;;;;;;;;1449965;41;7017;-68
2021/07/18 03:38:16;;;;;;;;;;;;;;;;;;1450338;41;7004;-68
2021/07/18 03:39:18;;;;;;;;;;;;;;;;;;1449862;41;7028;-67
2021/07/18 03:40:21;;;;;;;;;;;;;;;;;;1449531;41;7013;-68
2021/07/18 03:41:23;;;;;;;;;;;;;;;;;;1449990;41;7008;-69
2021/07/18 03:42:25;;;;;;;;;;;;;;;;;;1450659;41;7004;-67
2021/07/18 03:43:28;;;;;;;;;;;;;;;;;;1450446;41;7008;-68
2021/07/18 03:44:30;;;;;;;;;;;;;;;;;;1450095;41;7004;-68
2021/07/18 03:45:33;;;;;;;;;;;;;;;;;;1450259;41;7983;-67
2021/07/18 03:46:35;;;;;;;;;;;;;;;;;;1450371;41;7008;-69
2021/07/18 03:47:38;;;;;;;;;;;;;;;;;;1450547;41;7940;-69
2021/07/18 03:48:41;;;;;;;;;;;;;;;;;;1449582;41;7005;-68
2021/07/18 03:49:43;;;;;;;;;;;;;;;;;;1450321;41;7300;-69
2021/07/18 03:50:47;;;;;;;;;;;;;;;;;;1450620;41;7032;-67
2021/07/18 03:51:50;;;;;;;;;;;;;;;;;;1450742;41;7944;-69
2021/07/18 03:52:53;;;;;;;;;;;;;;;;;;1450228;41;6996;-69
2021/07/18 03:54:03;;;;;;;;;;;;;;;;;;1449856;41;7004;-68
2021/07/18 03:55:06;;;;;;;;;;;;;;;;;;1450205;41;7012;-69
2021/07/18 03:56:08;;;;;;;;;;;;;;;;;;1450547;41;7013;-68
2021/07/18 03:57:11;;;;;;;;;;;;;;;;;;1449918;41;7036;-68
2021/07/18 03:58:13;;;;;;;;;;;;;;;;;;1450228;41;7035;-67
2021/07/18 03:59:16;;;;;;;;;;;;;;;;;;1450257;41;7009;-68
2021/07/18 04:00:18;;;;;;;;;;;;;;;;;;1450631;41;8051;-68
2021/07/18 04:01:21;;;;;;;;;;;;;;;;;;1450345;41;7063;-69
2021/07/18 04:02:23;;;;;;;;;;;;;;;;;;1450134;41;7009;-68
2021/07/18 04:03:27;;;;;;;;;;;;;;;;;;1450467;41;7020;-67
2021/07/18 04:04:29;;;;;;;;;;;;;;;;;;1449904;41;7036;-68
2021/07/18 04:05:32;;;;;;;;;;;;;;;;;;1450046;41;7001;-67
2021/07/18 04:06:34;;;;;;;;;;;;;;;;;;1450268;41;7969;-68
2021/07/18 04:07:37;;;;;;;;;;;;;;;;;;1450574;41;7036;-68
2021/07/18 04:08:40;;;;;;;;;;;;;;;;;;1449983;41;7706;-69
2021/07/18 04:09:43;;;;;;;;;;;;;;;;;;1449265;41;7004;-69
2021/07/18 04:10:45;;;;;;;;;;;;;;;;;;1449911;41;7032;-68
2021/07/18 04:11:47;;;;;;;;;;;;;;;;;;1449919;40;7008;-67
2021/07/18 04:12:52;;;;;;;;;;;;;;;;;;1450831;41;7004;-69
2021/07/18 04:13:55;;;;;;;;;;;;;;;;;;1450418;41;7035;-69
2021/07/18 04:14:57;;;;;;;;;;;;;;;;;;1450385;41;7016;-68
2021/07/18 04:16:00;;;;;;;;;;;;;;;;;;1449773;41;7035;-69
2021/07/18 04:17:02;;;;;;;;;;;;;;;;;;1450520;41;7013;-68
2021/07/18 04:18:06;;;;;;;;;;;;;;;;;;1450513;41;7012;-69
2021/07/18 04:19:08;;;;;;;;;;;;;;;;;;1450458;41;7049;-67
2021/07/18 04:20:11;;;;;;;;;;;;;;;;;;1450827;41;7205;-69
2021/07/18 04:21:19;;;;;;;;;;;;;;;;;;1450647;41;9982;-69
2021/07/18 04:22:21;;;;;;;;;;;;;;;;;;1450160;41;7052;-69
2021/07/18 04:23:24;;;;;;;;;;;;;;;;;;1450205;41;7112;-68
2021/07/18 04:24:26;;;;;;;;;;;;;;;;;;1450439;41;7017;-69
2021/07/18 04:25:28;;;;;;;;;;;;;;;;;;1450580;41;7000;-69
2021/07/18 04:26:31;;;;;;;;;;;;;;;;;;1450558;41;7067;-68
2021/07/18 04:27:33;;;;;;;;;;;;;;;;;;1450372;41;7000;-67
2021/07/18 04:28:36;;;;;;;;;;;;;;;;;;1450321;41;7036;-68
2021/07/18 04:29:38;;;;;;;;;;;;;;;;;;1450309;41;7040;-69
2021/07/18 04:30:41;;;;;;;;;;;;;;;;;;1450231;41;7009;-67
2021/07/18 04:31:43;;;;;;;;;;;;;;;;;;1450297;41;7105;-68
2021/07/18 04:32:46;;;;;;;;;;;;;;;;;;1450214;41;7116;-68
2021/07/18 04:33:50;;;;;;;;;;;;;;;;;;1450479;41;7011;-66
2021/07/18 04:34:53;;;;;;;;;;;;;;;;;;1450206;41;7017;-69
2021/07/18 04:35:55;;;;;;;;;;;;;;;;;;1450583;41;7045;-69
2021/07/18 04:36:58;;;;;;;;;;;;;;;;;;1451004;41;7024;-67
2021/07/18 04:38:03;;;;;;;;;;;;;;;;;;1450561;41;7000;-69
2021/07/18 04:39:06;;;;;;;;;;;;;;;;;;1450083;41;7032;-67
2021/07/18 04:40:11;;;;;;;;;;;;;;;;;;1449944;41;7114;-67
2021/07/18 04:41:13;;;;;;;;;;;;;;;;;;1450382;41;7976;-67
2021/07/18 04:42:15;;;;;;;;;;;;;;;;;;1451143;41;7008;-72
2021/07/18 04:43:18;;;;;;;;;;;;;;;;;;1450870;41;7226;-70
2021/07/18 04:44:20;;;;;;;;;;;;;;;;;;1446108;41;7008;-69
2021/07/18 04:45:23;;;;;;;;;;;;;;;;;;1446155;41;7008;-67
2021/07/18 04:46:25;;;;;;;;;;;;;;;;;;1450729;41;7901;-69
2021/07/18 04:47:28;;;;;;;;;;;;;;;;;;1450815;41;7259;-69
2021/07/18 04:48:31;;;;;;;;;;;;;;;;;;1450012;41;7041;-67
2021/07/18 04:49:33;;;;;;;;;;;;;;;;;;1450329;41;7000;-67
2021/07/18 04:50:36;;;;;;;;;;;;;;;;;;1450550;41;7228;-66
2021/07/18 04:51:38;;;;;;;;;;;;;;;;;;1450661;41;7001;-69
2021/07/18 04:52:46;;;;;;;;;;;;;;;;;;1450525;41;7292;-68
2021/07/18 04:53:48;;;;;;;;;;;;;;;;;;1450593;41;7024;-67
2021/07/18 04:54:51;;;;;;;;;;;;;;;;;;1450935;41;7032;-68
2021/07/18 04:55:54;;;;;;;;;;;;;;;;;;1450699;41;7008;-67
2021/07/18 04:56:57;;;;;;;;;;;;;;;;;;1450367;41;7049;-66
2021/07/18 04:58:02;;;;;;;;;;;;;;;;;;1450293;41;7004;-67
2021/07/18 04:59:05;;;;;;;;;;;;;;;;;;1450578;41;7000;-69
2021/07/18 05:00:12;;;;;;;;;;;;;;;;;;1450825;41;7008;-69
2021/07/18 05:01:15;;;;;;;;;;;;;;;;;;1450750;41;7080;-70
2021/07/18 05:02:17;;;;;;;;;;;;;;;;;;1450603;41;7289;-71
2021/07/18 05:03:20;;;;;;;;;;;;;;;;;;1450703;41;7068;-71
2021/07/18 05:04:23;;;;;;;;;;;;;;;;;;1450139;41;7008;-71
2021/07/18 05:05:25;;;;;;;;;;;;;;;;;;1449329;41;7000;-70
2021/07/18 05:06:28;;;;;;;;;;;;;;;;;;1450580;41;7000;-72
2021/07/18 05:07:30;;;;;;;;;;;;;;;;;;1450756;41;7004;-70
2021/07/18 05:08:33;;;;;;;;;;;;;;;;;;1450057;41;7900;-72
2021/07/18 05:09:35;;;;;;;;;;;;;;;;;;1450335;41;7000;-69
2021/07/18 05:10:38;;;;;;;;;;;;;;;;;;1446378;41;7024;-68
2021/07/18 05:11:40;;;;;;;;;;;;;;;;;;1450255;41;7933;-68
2021/07/18 05:12:47;;;;;;;;;;;;;;;;;;1450760;41;7964;-69
2021/07/18 05:13:51;;;;;;;;;;;;;;;;;;1450125;41;7008;-69
2021/07/18 05:14:54;;;;;;;;;;;;;;;;;;1450324;41;7076;-69
2021/07/18 05:15:56;;;;;;;;;;;;;;;;;;1450791;41;7023;-67
2021/07/18 05:16:58;;;;;;;;;;;;;;;;;;1451042;41;7224;-68
2021/07/18 05:18:11;;;;;;;;;;;;;;;;;;1451114;41;7040;-68
2021/07/18 05:19:14;;;;;;;;;;;;;;;;;;1450194;41;7060;-67
2021/07/18 05:20:17;;;;;;;;;;;;;;;;;;1450708;41;7017;-66
2021/07/18 05:21:20;;;;;;;;;;;;;;;;;;1450735;41;7008;-68
2021/07/18 05:22:22;;;;;;;;;;;;;;;;;;1450626;41;7016;-67
2021/07/18 05:23:26;;;;;;;;;;;;;;;;;;1450428;40;7008;-69
2021/07/18 05:24:32;;;;;;;;;;;;;;;;;;1445877;41;7007;-68
2021/07/18 05:25:35;;;;;;;;;;;;;;;;;;1446472;41;7013;-69
2021/07/18 05:26:37;;;;;;;;;;;;;;;;;;1450112;41;7048;-67
2021/07/18 05:27:40;;;;;;;;;;;;;;;;;;1450373;41;7000;-67
2021/07/18 05:28:43;;;;;;;;;;;;;;;;;;1450245;41;7035;-67
2021/07/18 05:29:45;;;;;;;;;;;;;;;;;;1450035;41;7008;-68
2021/07/18 05:30:48;;;;;;;;;;;;;;;;;;1450454;41;7968;-68
2021/07/18 05:31:50;;;;;;;;;;;;;;;;;;1450498;41;7008;-69
2021/07/18 05:32:53;;;;;;;;;;;;;;;;;;1450107;41;7036;-69
2021/07/18 05:33:55;;;;;;;;;;;;;;;;;;1450307;41;7045;-69
2021/07/18 05:34:57;;;;;;;;;;;;;;;;;;1450351;41;7013;-67
2021/07/18 05:36:00;;;;;;;;;;;;;;;;;;1450520;41;7665;-67
2021/07/18 05:37:02;;;;;;;;;;;;;;;;;;1451006;41;7004;-68
2021/07/18 05:38:05;;;;;;;;;;;;;;;;;;1451116;41;7027;-67
2021/07/18 05:39:08;;;;;;;;;;;;;;;;;;1450137;41;7013;-69
2021/07/18 05:40:12;;;;;;;;;;;;;;;;;;1449881;41;7040;-68
2021/07/18 05:41:14;;;;;;;;;;;;;;;;;;1450515;41;7773;-68
2021/07/18 05:42:16;;;;;;;;;;;;;;;;;;1450093;41;7016;-68
2021/07/18 05:43:19;;;;;;;;;;;;;;;;;;1450414;41;7000;-68
2021/07/18 05:44:21;;;;;;;;;;;;;;;;;;1449810;41;7004;-68
2021/07/18 05:45:24;;;;;;;;;;;;;;;;;;1450631;41;7080;-69
2021/07/18 05:46:26;;;;;;;;;;;;;;;;;;1450479;41;7064;-69
2021/07/18 05:47:30;;;;;;;;;;;;;;;;;;1450800;41;7035;-68
2021/07/18 05:48:32;;;;;;;;;;;;;;;;;;1450712;41;7011;-67
2021/07/18 05:49:35;;;;;;;;;;;;;;;;;;1450180;41;7024;-67
2021/07/18 05:50:38;;;;;;;;;;;;;;;;;;1450471;41;7039;-68
2021/07/18 05:51:40;;;;;;;;;;;;;;;;;;1450265;41;7016;-69
2021/07/18 05:52:44;;;;;;;;;;;;;;;;;;1450806;41;7945;-67
2021/07/18 05:53:46;;;;;;;;;;;;;;;;;;1451032;41;7977;-69
2021/07/18 05:54:48;;;;;;;;;;;;;;;;;;1450697;41;7004;-69
2021/07/18 05:55:51;;;;;;;;;;;;;;;;;;1450051;41;7000;-68
2021/07/18 05:56:53;;;;;;;;;;;;;;;;;;1450916;41;7005;-69
2021/07/18 05:57:56;;;;;;;;;;;;;;;;;;1451002;41;6996;-67
2021/07/18 05:58:58;;;;;;;;;;;;;;;;;;1450749;41;7048;-69
2021/07/18 06:00:02;;;;;;;;;;;;;;;;;;1449858;41;7020;-67
2021/07/18 06:01:04;;;;;;;;;;;;;;;;;;1449794;41;7004;-68
2021/07/18 06:02:07;;;;;;;;;;;;;;;;;;1450481;41;7119;-68
2021/07/18 06:03:10;;;;;;;;;;;;;;;;;;1450453;41;7004;-70
2021/07/18 06:04:12;;;;;;;;;;;;;;;;;;1450724;41;7052;-68
2021/07/18 06:05:14;;;;;;;;;;;;;;;;;;1446291;41;8378;-69
2021/07/18 06:06:17;;;;;;;;;;;;;;;;;;1446517;41;7000;-69
2021/07/18 06:07:19;;;;;;;;;;;;;;;;;;1450608;41;7000;-68
2021/07/18 06:08:22;;;;;;;;;;;;;;;;;;1450623;41;7251;-70
2021/07/18 06:09:24;;;;;;;;;;;;;;;;;;1450787;41;7013;-68
2021/07/18 06:10:27;;;;;;;;;;;;;;;;;;1450573;41;7009;-68
2021/07/18 06:11:29;;;;;;;;;;;;;;;;;;1451062;41;7393;-69
2021/07/18 06:12:32;;;;;;;;;;;;;;;;;;1450286;41;7190;-69
2021/07/18 06:13:34;;;;;;;;;;;;;;;;;;1449992;41;7016;-66
2021/07/18 06:14:39;;;;;;;;;;;;;;;;;;1450440;41;7008;-69
2021/07/18 06:15:41;;;;;;;;;;;;;;;;;;1450672;41;7039;-69
2021/07/18 06:16:44;;;;;;;;;;;;;;;;;;1450545;41;7009;-67
2021/07/18 06:17:46;;;;;;;;;;;;;;;;;;1450096;41;7000;-69
2021/07/18 06:18:49;;;;;;;;;;;;;;;;;;1450749;41;7119;-67
2021/07/18 06:19:51;;;;;;;;;;;;;;;;;;1450388;41;7726;-68
2021/07/18 06:20:53;;;;;;;;;;;;;;;;;;1450475;41;7009;-69
2021/07/18 06:21:56;;;;;;;;;;;;;;;;;;1449978;41;7232;-69
2021/07/18 06:22:59;;;;;;;;;;;;;;;;;;1450225;41;7052;-69
2021/07/18 06:24:04;;;;;;;;;;;;;;;;;;1450102;41;7017;-67
2021/07/18 06:25:09;;;;;;;;;;;;;;;;;;1445805;41;7144;-68
2021/07/18 06:26:12;;;;;;;;;;;;;;;;;;1446231;41;7004;-68
2021/07/18 06:27:14;;;;;;;;;;;;;;;;;;1450408;41;7108;-69
2021/07/18 06:28:17;;;;;;;;;;;;;;;;;;1449742;41;7009;-69
2021/07/18 06:29:19;;;;;;;;;;;;;;;;;;1450002;41;7246;-69
2021/07/18 06:30:21;;;;;;;;;;;;;;;;;;1450261;41;7116;-69
2021/07/18 06:31:24;;;;;;;;;;;;;;;;;;1450185;41;7000;-69
2021/07/18 06:32:27;;;;;;;;;;;;;;;;;;1450028;41;7044;-68
2021/07/18 06:33:30;;;;;;;;;;;;;;;;;;1450265;41;7950;-67
2021/07/18 06:34:32;;;;;;;;;;;;;;;;;;1449633;40;7013;-68
2021/07/18 06:35:35;;;;;;;;;;;;;;;;;;1449787;41;7004;-69
2021/07/18 06:36:37;;;;;;;;;;;;;;;;;;1450407;41;7004;-69
2021/07/18 06:37:40;;;;;;;;;;;;;;;;;;1450320;41;7041;-69
2021/07/18 06:38:42;;;;;;;;;;;;;;;;;;1450411;41;7000;-68
2021/07/18 06:39:44;;;;;;;;;;;;;;;;;;1449105;41;7008;-68
2021/07/18 06:40:47;;;;;;;;;;;;;;;;;;1449516;41;7988;-67
2021/07/18 06:41:49;;;;;;;;;;;;;;;;;;1450504;41;7004;-69
2021/07/18 06:42:52;;;;;;;;;;;;;;;;;;1451106;41;7000;-68
2021/07/18 06:43:54;;;;;;;;;;;;;;;;;;1450975;41;7040;-67
2021/07/18 06:45:04;;;;;;;;;;;;;;;;;;1450847;41;7000;-69
2021/07/18 06:46:06;;;;;;;;;;;;;;;;;;1450939;41;7193;-68
2021/07/18 06:47:09;;;;;;;;;;;;;;;;;;1449614;41;7008;-68
2021/07/18 06:48:11;;;;;;;;;;;;;;;;;;1445905;41;7004;-67
2021/07/18 06:49:14;;;;;;;;;;;;;;;;;;1445914;41;7017;-68
2021/07/18 06:50:18;;;;;;;;;;;;;;;;;;1450217;41;7031;-67
2021/07/18 06:51:22;;;;;;;;;;;;;;;;;;1450621;41;7056;-68
2021/07/18 06:52:25;;;;;;;;;;;;;;;;;;1450559;41;7009;-68
2021/07/18 06:53:28;;;;;;;;;;;;;;;;;;1450696;41;7036;-68
2021/07/18 06:54:30;;;;;;;;;;;;;;;;;;1446218;41;7051;-67
2021/07/18 06:55:33;;;;;;;;;;;;;;;;;;1445990;41;7046;-69
2021/07/18 06:56:35;;;;;;;;;;;;;;;;;;1450050;41;7272;-69
2021/07/18 06:57:38;;;;;;;;;;;;;;;;;;1450581;41;7098;-68
2021/07/18 06:58:40;;;;;;;;;;;;;;;;;;1450712;41;7008;-67
2021/07/18 06:59:42;;;;;;;;;;;;;;;;;;1450658;41;7044;-69
2021/07/18 07:00:45;;;;;;;;;;;;;;;;;;1450219;41;7013;-68
2021/07/18 07:01:47;;;;;;;;;;;;;;;;;;1450722;41;7084;-68
2021/07/18 07:02:50;;;;;;;;;;;;;;;;;;1450416;41;7012;-69
2021/07/18 07:03:53;;;;;;;;;;;;;;;;;;1450815;41;7044;-68
2021/07/18 07:04:55;;;;;;;;;;;;;;;;;;1450111;41;7040;-67
2021/07/18 07:05:58;;;;;;;;;;;;;;;;;;1449869;41;7014;-67
2021/07/18 07:07:00;;;;;;;;;;;;;;;;;;1449656;41;7004;-68
2021/07/18 07:08:03;;;;;;;;;;;;;;;;;;1450651;41;7957;-69
2021/07/18 07:09:05;;;;;;;;;;;;;;;;;;1450331;41;7973;-69
2021/07/18 07:10:08;;;;;;;;;;;;;;;;;;1450132;41;7028;-68
2021/07/18 07:11:10;;;;;;;;;;;;;;;;;;1450065;41;7061;-69
2021/07/18 07:12:13;;;;;;;;;;;;;;;;;;1450347;41;7029;-67
2021/07/18 07:13:15;;;;;;;;;;;;;;;;;;1450226;41;7049;-69
2021/07/18 07:14:18;;;;;;;;;;;;;;;;;;1449836;41;7009;-70
2021/07/18 07:15:20;;;;;;;;;;;;;;;;;;1449634;41;7032;-68
2021/07/18 07:16:23;;;;;;;;;;;;;;;;;;1450663;41;7140;-69